Time;durP1;ratioP1;P1;durP2;ratioP2;P2;SDS_P1;SDS_P2;PMS_P1;PMS_P2;Temp;Humidity;BMP_temperature;BMP_pressure;BME280_temperature;BME280_humidity;BME280_pressure;Samples;Min_cycle;Max_cycle;Signal;HPM_P1;HPM_P2
2020/12/03 00:00:24;;;;;;;50.92;18.35;;;5.40;99.90;;;;;;5033641;28;20060;-85
2020/12/03 00:02:50;;;;;;;51.35;18.88;;;5.40;99.90;;;;;;5049303;28;20033;-84
2020/12/03 00:05:16;;;;;;;50.40;19.52;;;5.40;99.90;;;;;;5033260;28;20083;-85
2020/12/03 00:07:42;;;;;;;48.47;18.15;;;5.40;99.90;;;;;;5033137;28;20051;-84
2020/12/03 00:10:08;;;;;;;45.25;16.40;;;5.40;99.90;;;;;;5031191;28;20021;-85
2020/12/03 00:12:33;;;;;;;53.55;20.10;;;5.40;99.90;;;;;;5033397;28;20477;-85
2020/12/03 00:14:59;;;;;;;53.80;20.00;;;5.40;99.90;;;;;;5033469;28;20029;-85
2020/12/03 00:17:24;;;;;;;51.80;18.95;;;5.40;99.90;;;;;;5049623;28;20064;-88
2020/12/03 00:19:50;;;;;;;53.15;20.42;;;5.40;99.90;;;;;;5033071;28;20028;-84
2020/12/03 00:22:16;;;;;;;50.70;17.05;;;5.40;99.90;;;;;;5033010;28;20037;-86
2020/12/03 00:24:41;;;;;;;55.17;18.90;;;5.50;99.90;;;;;;5033297;28;20029;-85
2020/12/03 00:27:11;;;;;;;48.40;18.70;;;5.40;99.90;;;;;;5033104;28;20040;-86
2020/12/03 00:29:37;;;;;;;51.53;17.63;;;5.40;99.90;;;;;;5067257;28;20079;-84
2020/12/03 00:32:04;;;;;;;60.58;20.73;;;5.50;99.90;;;;;;5049536;28;20036;-84
2020/12/03 00:34:30;;;;;;;53.63;19.33;;;5.50;99.90;;;;;;5032897;28;20531;-85
2020/12/03 00:36:56;;;;;;;50.35;18.40;;;5.50;99.90;;;;;;5049458;28;20037;-85
2020/12/03 00:39:22;;;;;;;53.70;18.10;;;5.40;99.90;;;;;;5032765;28;20061;-83
2020/12/03 00:41:50;;;;;;;53.13;19.90;;;5.50;99.90;;;;;;5032948;28;20035;-86
2020/12/03 00:44:17;;;;;;;51.90;18.33;;;5.40;99.90;;;;;;5032734;28;20033;-85
2020/12/03 00:46:44;;;;;;;55.72;19.92;;;5.40;99.90;;;;;;5032675;28;20024;-86
2020/12/03 00:49:09;;;;;;;51.00;18.88;;;5.50;99.90;;;;;;5032589;28;20116;-85
2020/12/03 00:51:35;;;;;;;56.55;20.48;;;5.50;99.90;;;;;;5032717;28;20036;-84
2020/12/03 00:54:02;;;;;;;44.78;16.33;;;5.50;99.90;;;;;;5049096;28;20055;-85
2020/12/03 00:56:28;;;;;;;47.20;17.63;;;5.50;99.90;;;;;;5032565;28;20029;-84
2020/12/03 00:58:54;;;;;;;50.65;20.17;;;5.40;99.90;;;;;;5048930;28;20048;-85
2020/12/03 01:01:21;;;;;;;52.92;18.55;;;5.50;99.90;;;;;;5032526;28;20035;-85
2020/12/03 01:03:48;;;;;;;50.28;19.15;;;5.50;99.90;;;;;;5048805;28;20036;-85
2020/12/03 01:06:14;;;;;;;47.08;17.90;;;5.50;99.90;;;;;;5032235;28;20067;-86
2020/12/03 01:08:39;;;;;;;44.28;16.52;;;5.50;99.90;;;;;;5032140;28;20053;-87
2020/12/03 01:11:05;;;;;;;49.35;18.35;;;5.50;99.90;;;;;;5021345;28;20025;-84
2020/12/03 01:13:31;;;;;;;51.13;17.67;;;5.50;99.90;;;;;;5028988;28;20033;-85
2020/12/03 01:15:58;;;;;;;44.63;17.92;;;5.50;99.90;;;;;;5029823;28;20021;-84
2020/12/03 01:18:24;;;;;;;47.95;17.55;;;5.50;99.90;;;;;;5032016;28;20037;-83
2020/12/03 01:20:49;;;;;;;51.80;20.77;;;5.50;99.90;;;;;;5032211;28;20025;-85
2020/12/03 01:23:15;;;;;;;46.72;17.00;;;5.50;99.90;;;;;;5031894;28;20029;-85
2020/12/03 01:25:41;;;;;;;51.65;18.27;;;5.50;99.90;;;;;;5048659;28;20029;-84
2020/12/03 01:28:06;;;;;;;50.45;18.27;;;5.50;99.90;;;;;;5032031;28;20053;-86
2020/12/03 01:30:32;;;;;;;49.05;18.70;;;5.50;99.90;;;;;;5032088;28;20055;-85
2020/12/03 01:32:57;;;;;;;51.00;19.33;;;5.50;99.90;;;;;;5032189;28;20508;-84
2020/12/03 01:35:23;;;;;;;48.45;17.67;;;5.50;99.90;;;;;;5031738;28;20534;-84
2020/12/03 01:37:50;;;;;;;44.17;17.17;;;5.50;99.90;;;;;;5031735;28;20051;-85
2020/12/03 01:40:20;;;;;;;49.15;17.90;;;5.50;99.90;;;;;;5032022;28;20036;-83
2020/12/03 01:42:45;;;;;;;53.60;20.65;;;5.50;99.90;;;;;;5032059;28;20063;-84
2020/12/03 01:45:48;;;;;;;46.63;18.00;;;5.50;99.90;;;;;;5031774;28;20040;-85
2020/12/03 01:48:39;;;;;;;51.75;18.27;;;5.50;99.90;;;;;;5031633;28;20405;-86
2020/12/03 01:51:28;;;;;;;50.80;19.42;;;5.50;99.90;;;;;;5031737;28;20040;-85
2020/12/03 01:53:59;;;;;;;46.03;18.85;;;5.50;99.90;;;;;;5031802;28;20441;-84
2020/12/03 01:56:51;;;;;;;40.55;16.67;;;5.50;99.90;;;;;;5048306;28;20112;-84
2020/12/03 01:59:19;;;;;;;50.88;19.58;;;5.50;99.90;;;;;;5065580;28;20041;-86
2020/12/03 02:01:45;;;;;;;44.05;16.42;;;5.50;99.90;;;;;;5031641;28;20120;-84
2020/12/03 02:04:30;;;;;;;38.80;15.93;;;5.50;99.90;;;;;;5031440;28;20451;-83
2020/12/03 02:06:59;;;;;;;36.75;15.43;;;5.50;99.90;;;;;;4990669;28;20041;-84
2020/12/03 02:09:25;;;;;;;49.05;18.27;;;5.50;99.90;;;;;;5023918;28;20112;-84
2020/12/03 02:11:51;;;;;;;39.20;15.65;;;5.50;99.90;;;;;;5005167;28;20030;-84
2020/12/03 02:14:17;;;;;;;39.28;17.58;;;5.40;99.90;;;;;;5007395;28;20628;-85
2020/12/03 02:16:42;;;;;;;40.97;18.48;;;5.50;99.90;;;;;;4991166;28;20093;-84
2020/12/03 02:19:25;;;;;;;42.95;18.27;;;5.40;99.90;;;;;;4988792;28;20129;-84
2020/12/03 02:22:05;;;;;;;45.70;20.05;;;5.40;99.90;;;;;;4987959;28;20077;-84
2020/12/03 02:24:36;;;;;;;44.33;18.65;;;5.40;99.90;;;;;;4999853;28;20062;-85
2020/12/03 02:27:03;;;;;;;44.90;19.65;;;5.40;99.90;;;;;;5008828;28;20034;-84
2020/12/03 02:29:29;;;;;;;43.75;18.95;;;5.40;99.90;;;;;;5011216;28;20034;-87
2020/12/03 02:31:55;;;;;;;44.17;18.73;;;5.30;99.90;;;;;;4994809;28;20080;-84
2020/12/03 02:34:21;;;;;;;43.70;20.23;;;5.30;99.90;;;;;;4994725;28;20070;-84
2020/12/03 02:36:55;;;;;;;41.72;20.10;;;5.30;99.90;;;;;;4991545;28;20038;-84
2020/12/03 02:39:22;;;;;;;45.47;20.98;;;5.30;99.90;;;;;;4993868;28;20046;-84
2020/12/03 02:41:47;;;;;;;46.13;21.20;;;5.30;99.90;;;;;;4991582;28;20026;-84
2020/12/03 02:44:13;;;;;;;44.92;19.60;;;5.30;99.90;;;;;;5031421;28;20386;-85
2020/12/03 02:46:39;;;;;;;43.97;20.98;;;5.20;99.90;;;;;;5034943;28;20033;-85
2020/12/03 02:49:05;;;;;;;46.60;20.40;;;5.20;99.90;;;;;;5034976;28;20120;-85
2020/12/03 02:51:31;;;;;;;46.58;19.27;;;5.20;99.90;;;;;;5034909;28;20036;-85
2020/12/03 02:53:56;;;;;;;45.15;19.98;;;5.20;99.90;;;;;;5034901;28;20029;-86
2020/12/03 02:56:22;;;;;;;48.00;20.60;;;5.20;99.90;;;;;;5034921;28;20105;-84
2020/12/03 02:58:47;;;;;;;47.33;20.75;;;5.20;99.90;;;;;;5051450;28;20047;-84
2020/12/03 03:01:13;;;;;;;53.55;21.65;;;5.20;99.90;;;;;;5034736;28;20029;-86
2020/12/03 03:03:39;;;;;;;50.33;23.00;;;5.20;99.90;;;;;;5034627;28;20088;-85
2020/12/03 03:06:04;;;;;;;49.78;22.83;;;5.30;99.90;;;;;;5034541;28;20017;-85
2020/12/03 03:08:30;;;;;;;49.15;21.85;;;5.30;99.90;;;;;;5034201;28;20077;-84
2020/12/03 03:10:56;;;;;;;52.83;21.13;;;5.20;99.90;;;;;;5031387;28;20029;-84
2020/12/03 03:13:21;;;;;;;47.25;21.35;;;5.30;99.90;;;;;;5047606;28;20041;-86
2020/12/03 03:15:47;;;;;;;44.88;22.52;;;5.30;99.90;;;;;;5063934;28;20036;-85
2020/12/03 03:18:13;;;;;;;44.70;19.17;;;5.20;99.90;;;;;;5034269;28;20095;-85
2020/12/03 03:20:38;;;;;;;48.40;22.65;;;5.30;99.90;;;;;;5034295;28;20056;-85
2020/12/03 03:23:05;;;;;;;52.17;21.42;;;5.30;99.90;;;;;;5034391;28;20033;-86
2020/12/03 03:25:30;;;;;;;49.13;21.27;;;5.30;99.90;;;;;;5034235;28;20033;-85
2020/12/03 03:27:56;;;;;;;50.72;21.90;;;5.30;99.90;;;;;;5050848;28;20039;-84
2020/12/03 03:30:23;;;;;;;51.17;22.40;;;5.30;99.90;;;;;;5050724;28;20029;-86
2020/12/03 03:32:49;;;;;;;52.03;23.42;;;5.30;99.90;;;;;;5034316;28;20021;-88
2020/12/03 03:35:18;;;;;;;47.72;23.23;;;5.30;99.90;;;;;;5034022;28;20334;-84
2020/12/03 03:37:44;;;;;;;39.85;18.67;;;5.20;99.90;;;;;;5033222;28;20044;-85
2020/12/03 03:40:10;;;;;;;43.83;21.38;;;5.30;99.90;;;;;;5033716;28;20461;-84
2020/12/03 03:42:35;;;;;;;58.40;23.08;;;5.30;99.90;;;;;;5033826;28;20496;-84
2020/12/03 03:45:02;;;;;;;46.15;21.10;;;5.20;99.90;;;;;;5033801;28;20052;-85
2020/12/03 03:47:28;;;;;;;51.13;20.50;;;5.20;99.90;;;;;;5033955;28;20033;-85
2020/12/03 03:49:53;;;;;;;50.15;22.45;;;5.20;99.90;;;;;;5033812;28;20064;-85
2020/12/03 03:52:19;;;;;;;47.50;21.05;;;5.20;99.90;;;;;;5050581;28;20048;-85
2020/12/03 03:54:44;;;;;;;46.97;20.48;;;5.10;99.90;;;;;;5033580;28;20040;-85
2020/12/03 03:57:10;;;;;;;38.70;20.08;;;5.20;99.90;;;;;;5050245;28;20485;-84
2020/12/03 03:59:36;;;;;;;50.28;21.27;;;5.10;99.90;;;;;;5050147;28;20052;-84
2020/12/03 04:02:02;;;;;;;51.90;23.08;;;5.20;99.90;;;;;;5050264;28;20028;-85
2020/12/03 04:04:27;;;;;;;47.80;21.85;;;5.10;99.90;;;;;;5050197;28;20102;-85
2020/12/03 04:06:53;;;;;;;41.55;20.33;;;5.20;99.90;;;;;;5032681;28;20021;-84
2020/12/03 04:09:19;;;;;;;48.15;21.67;;;5.10;99.90;;;;;;5033101;28;20055;-85
2020/12/03 04:11:44;;;;;;;42.30;21.20;;;5.20;99.90;;;;;;5033358;28;20025;-85
2020/12/03 04:14:11;;;;;;;44.90;20.55;;;5.10;99.90;;;;;;5033409;28;20037;-85
2020/12/03 04:16:36;;;;;;;47.03;23.05;;;5.20;99.90;;;;;;5033586;28;20029;-85
2020/12/03 04:19:02;;;;;;;41.50;19.98;;;5.20;99.90;;;;;;5049923;28;20048;-86
2020/12/03 04:21:28;;;;;;;49.55;23.00;;;5.20;99.90;;;;;;5027288;28;20056;-85
2020/12/03 04:23:53;;;;;;;49.53;24.60;;;5.20;99.90;;;;;;5049691;28;20051;-85
2020/12/03 04:26:19;;;;;;;41.63;21.90;;;5.20;99.90;;;;;;5033287;28;20108;-84
2020/12/03 04:28:44;;;;;;;48.65;23.55;;;5.20;99.90;;;;;;5028293;28;20037;-85
2020/12/03 04:31:10;;;;;;;43.78;20.02;;;5.20;99.90;;;;;;5011663;28;20038;-86
2020/12/03 04:33:36;;;;;;;45.00;20.58;;;5.10;99.90;;;;;;5051524;28;20044;-87
2020/12/03 04:36:03;;;;;;;41.45;19.02;;;5.20;99.90;;;;;;5049585;28;20044;-85
2020/12/03 04:38:28;;;;;;;46.85;20.77;;;5.20;99.90;;;;;;5043306;28;20068;-87
2020/12/03 04:40:55;;;;;;;42.42;18.85;;;5.20;99.90;;;;;;5028073;28;20025;-85
2020/12/03 04:43:35;;;;;;;37.10;18.00;;;5.20;99.90;;;;;;5036773;28;20037;-85
2020/12/03 04:46:04;;;;;;;37.15;18.02;;;5.20;99.90;;;;;;5011292;28;20041;-86
2020/12/03 04:48:48;;;;;;;40.75;16.67;;;5.20;99.90;;;;;;5022152;28;20029;-86
2020/12/03 04:51:49;;;;;;;36.97;16.70;;;5.20;99.90;;;;;;5029457;28;20452;-87
2020/12/03 04:54:22;;;;;;;40.85;17.45;;;5.20;99.90;;;;;;5029419;28;20037;-85
2020/12/03 04:57:03;;;;;;;42.00;18.98;;;5.30;99.90;;;;;;5040883;28;20060;-85
2020/12/03 04:59:57;;;;;;;39.33;15.20;;;5.30;99.90;;;;;;5048950;28;20041;-85
2020/12/03 05:03:04;;;;;;;41.53;19.55;;;5.30;99.90;;;;;;5032479;28;20477;-88
2020/12/03 05:05:49;;;;;;;36.72;18.30;;;5.30;99.90;;;;;;5032328;28;20032;-85
2020/12/03 05:08:41;;;;;;;46.67;20.20;;;5.30;99.90;;;;;;5065136;28;20053;-85
2020/12/03 05:11:18;;;;;;;35.83;15.18;;;5.30;99.90;;;;;;5028960;28;20026;-88
2020/12/03 05:13:48;;;;;;;41.08;18.08;;;5.30;99.90;;;;;;5028970;28;20086;-88
2020/12/03 05:16:16;;;;;;;;;;;5.30;99.90;;;;;;5050527;28;20085;-89
2020/12/03 05:19:03;;;;;;;41.97;16.35;;;5.30;99.90;;;;;;5051922;28;20380;-89
2020/12/03 05:21:31;;;;;;;31.35;14.40;;;5.40;99.90;;;;;;5052061;28;20036;-84
2020/12/03 05:23:57;;;;;;;37.20;17.92;;;5.30;99.90;;;;;;5044762;28;20033;-84
2020/12/03 05:26:28;;;;;;;36.03;16.17;;;5.40;99.90;;;;;;5048094;28;20119;-83
2020/12/03 05:28:57;;;;;;;38.90;14.95;;;5.40;99.90;;;;;;5031925;28;20029;-84
2020/12/03 05:31:36;;;;;;;39.90;16.52;;;5.40;99.90;;;;;;5031587;28;20037;-86
2020/12/03 05:34:17;;;;;;;37.60;15.93;;;5.40;99.90;;;;;;5031905;28;20060;-84
2020/12/03 05:36:55;;;;;;;38.22;17.17;;;5.40;99.90;;;;;;5037602;28;20025;-87
2020/12/03 05:39:28;;;;;;;37.15;16.48;;;5.40;99.90;;;;;;5048356;28;20037;-83
2020/12/03 05:41:58;;;;;;;34.22;16.27;;;5.40;99.90;;;;;;5064987;28;20287;-84
2020/12/03 05:44:50;;;;;;;37.20;14.77;;;5.40;99.90;;;;;;5046961;28;20029;-84
2020/12/03 05:47:31;;;;;;;30.10;14.00;;;5.40;99.90;;;;;;5048030;28;20055;-83
2020/12/03 05:50:02;;;;;;;35.78;15.02;;;5.40;99.90;;;;;;5031674;28;20036;-84
2020/12/03 05:52:28;;;;;;;30.20;14.20;;;5.40;99.90;;;;;;5028206;28;20100;-84
2020/12/03 05:55:09;;;;;;;30.25;14.82;;;5.40;99.90;;;;;;5047153;28;20044;-84
2020/12/03 05:57:41;;;;;;;35.78;14.82;;;5.40;99.90;;;;;;5047628;28;20069;-85
2020/12/03 06:00:12;;;;;;;31.90;13.70;;;5.40;99.90;;;;;;5031531;28;20036;-84
2020/12/03 06:03:16;;;;;;;29.67;13.52;;;5.30;99.90;;;;;;5030821;28;20029;-83
2020/12/03 06:05:57;;;;;;;26.17;12.13;;;5.30;99.90;;;;;;5047846;28;20037;-83
2020/12/03 06:08:29;;;;;;;25.40;11.55;;;5.30;99.90;;;;;;5031482;28;20049;-83
2020/12/03 06:11:13;;;;;;;25.13;10.57;;;5.30;99.90;;;;;;5028775;28;20120;-84
2020/12/03 06:13:39;;;;;;;33.85;13.40;;;5.40;99.90;;;;;;5028253;28;20034;-84
2020/12/03 06:16:25;;;;;;;23.83;11.52;;;5.30;99.90;;;;;;5022247;28;20030;-83
2020/12/03 06:19:00;;;;;;;28.02;12.05;;;5.40;99.90;;;;;;5033643;28;20037;-84
2020/12/03 06:22:00;;;;;;;29.25;14.50;;;5.30;99.90;;;;;;5047142;28;20033;-87
2020/12/03 06:24:57;;;;;;;29.95;14.10;;;5.40;99.90;;;;;;4986398;28;20094;-85
2020/12/03 06:27:49;;;;;;;27.10;11.55;;;5.30;99.90;;;;;;5047072;28;20040;-84
2020/12/03 06:30:39;;;;;;;27.92;12.52;;;5.30;99.90;;;;;;5064267;28;20056;-86
2020/12/03 06:33:14;;;;;;;23.15;11.82;;;5.30;99.90;;;;;;5031170;28;20024;-84
2020/12/03 06:35:53;;;;;;;20.73;10.23;;;5.40;99.90;;;;;;5047704;28;20357;-84
2020/12/03 06:38:37;;;;;;;20.60;10.15;;;5.30;99.90;;;;;;5031023;28;20065;-87
2020/12/03 06:41:41;;;;;;;24.17;10.00;;;5.30;99.90;;;;;;5030867;28;20401;-84
2020/12/03 06:44:27;;;;;;;26.00;11.23;;;5.30;99.90;;;;;;5031241;28;20123;-85
2020/12/03 06:47:21;;;;;;;19.48;9.50;;;5.40;99.90;;;;;;5031901;28;20033;-84
2020/12/03 06:50:15;;;;;;;22.23;11.20;;;5.30;99.90;;;;;;5026735;28;20493;-84
2020/12/03 06:53:15;;;;;;;27.70;11.23;;;5.30;99.90;;;;;;5010988;28;20037;-83
2020/12/03 06:56:08;;;;;;;24.83;9.60;;;5.40;99.90;;;;;;5007702;28;20026;-83
2020/12/03 06:58:43;;;;;;;23.27;10.43;;;5.30;99.90;;;;;;5010978;28;20088;-83
2020/12/03 07:01:53;;;;;;;24.80;10.80;;;5.40;99.90;;;;;;5011189;28;20078;-83
2020/12/03 07:04:24;;;;;;;20.33;8.88;;;5.30;99.90;;;;;;5011401;28;20033;-82
2020/12/03 07:06:53;;;;;;;20.45;8.80;;;5.30;99.90;;;;;;5011045;28;20040;-83
2020/12/03 07:09:43;;;;;;;20.50;8.48;;;5.30;99.90;;;;;;5026684;28;20057;-84
2020/12/03 07:12:26;;;;;;;;;;;5.30;99.90;;;;;;5030491;28;20226;-82
2020/12/03 07:15:29;;;;;;;19.40;8.63;;;5.30;99.90;;;;;;5057524;28;19912;-83
2020/12/03 07:18:16;;;;;;;17.38;7.72;;;5.30;99.90;;;;;;5070683;28;20063;-84
2020/12/03 07:21:04;;;;;;;20.23;8.35;;;5.30;99.90;;;;;;5050784;28;20029;-83
2020/12/03 07:24:05;;;;;;;21.25;9.30;;;5.30;99.90;;;;;;5021581;28;20044;-83
2020/12/03 07:27:07;;;;;;;17.90;7.72;;;5.30;99.90;;;;;;4996359;28;20052;-83
2020/12/03 07:29:58;;;;;;;17.60;7.70;;;5.30;99.90;;;;;;5044255;28;20029;-83
2020/12/03 07:32:28;;;;;;;;;;;5.30;99.90;;;;;;5041185;28;20036;-84
2020/12/03 07:35:19;;;;;;;15.50;6.05;;;5.30;99.90;;;;;;5018185;28;19909;-84
2020/12/03 07:37:54;;;;;;;22.35;9.55;;;5.30;99.90;;;;;;5024201;28;20059;-81
2020/12/03 07:40:20;;;;;;;21.88;10.20;;;5.30;99.90;;;;;;5037344;28;20029;-83
2020/12/03 07:42:46;;;;;;;25.42;11.40;;;5.20;99.90;;;;;;5061865;28;20112;-83
2020/12/03 07:45:44;;;;;;;21.63;9.88;;;5.30;99.90;;;;;;5028970;28;20032;-82
2020/12/03 07:48:14;;;;;;;18.38;8.88;;;5.30;99.90;;;;;;5036953;28;20045;-84
2020/12/03 07:50:46;;;;;;;28.77;10.77;;;5.30;99.90;;;;;;5040812;28;20029;-82
2020/12/03 07:53:15;;;;;;;34.20;12.02;;;5.30;99.90;;;;;;5039249;28;20033;-83
2020/12/03 07:55:42;;;;;;;31.00;13.07;;;5.30;99.90;;;;;;5029045;28;20033;-82
2020/12/03 07:58:42;;;;;;;26.08;10.90;;;5.30;99.90;;;;;;5046675;28;20041;-82
2020/12/03 08:01:28;;;;;;;31.73;12.63;;;5.30;99.90;;;;;;5001735;28;20064;-83
2020/12/03 08:04:18;;;;;;;26.23;10.35;;;5.30;99.90;;;;;;5031959;28;20128;-83
2020/12/03 08:07:12;;;;;;;26.98;10.05;;;5.30;99.90;;;;;;5021279;28;20042;-83
2020/12/03 08:09:46;;;;;;;25.38;9.60;;;5.30;99.90;;;;;;5019752;28;20124;-83
2020/12/03 08:12:24;;;;;;;23.00;10.85;;;5.30;99.90;;;;;;5003183;28;20046;-83
2020/12/03 08:15:00;;;;;;;22.92;10.35;;;5.30;99.90;;;;;;5020983;28;20041;-83
2020/12/03 08:17:26;;;;;;;23.73;11.60;;;5.30;99.90;;;;;;5015759;28;20057;-82
2020/12/03 08:20:04;;;;;;;23.25;9.00;;;5.30;99.90;;;;;;5018600;28;20039;-83
2020/12/03 08:22:32;;;;;;;29.17;11.57;;;5.30;99.90;;;;;;5005479;28;20048;-82
2020/12/03 08:25:19;;;;;;;24.00;11.25;;;5.30;99.90;;;;;;5014179;28;20129;-82
2020/12/03 08:28:02;;;;;;;23.65;9.82;;;5.30;99.90;;;;;;4994834;28;20076;-82
2020/12/03 08:30:47;;;;;;;24.02;10.18;;;5.30;99.90;;;;;;5024566;28;20193;-82
2020/12/03 08:33:15;;;;;;;22.15;9.52;;;5.30;99.90;;;;;;5020112;28;20106;-82
2020/12/03 08:35:49;;;;;;;27.27;11.65;;;5.30;99.90;;;;;;5027454;28;20025;-83
2020/12/03 08:38:18;;;;;;;20.75;9.05;;;5.20;99.90;;;;;;5028905;28;20053;-82
2020/12/03 08:40:46;;;;;;;24.10;9.45;;;5.30;99.90;;;;;;5014695;28;20045;-84
2020/12/03 08:43:12;;;;;;;26.13;12.02;;;5.20;99.90;;;;;;5000554;28;20052;-83
2020/12/03 08:45:46;;;;;;;22.60;9.93;;;5.20;99.90;;;;;;5032213;28;20108;-83
2020/12/03 08:48:15;;;;;;;30.85;13.02;;;5.20;99.90;;;;;;5038885;28;20036;-82
2020/12/03 08:50:41;;;;;;;27.60;11.45;;;5.30;99.90;;;;;;5051398;28;20037;-83
2020/12/03 08:53:08;;;;;;;23.45;10.82;;;5.30;99.90;;;;;;5034571;28;20038;-83
2020/12/03 08:55:38;;;;;;;25.85;11.85;;;5.30;99.90;;;;;;5037388;28;20350;-85
2020/12/03 08:58:05;;;;;;;26.30;12.13;;;5.30;99.90;;;;;;5052935;28;20061;-83
2020/12/03 09:00:35;;;;;;;26.67;11.18;;;5.30;99.90;;;;;;5017382;28;20057;-83
2020/12/03 09:03:04;;;;;;;21.98;10.73;;;5.40;99.90;;;;;;5035947;28;20087;-83
2020/12/03 09:05:30;;;;;;;21.05;10.32;;;5.40;99.90;;;;;;5069455;28;20051;-83
2020/12/03 09:07:57;;;;;;;22.33;11.23;;;5.40;99.90;;;;;;5031900;28;20128;-82
2020/12/03 09:10:24;;;;;;;20.52;10.88;;;5.40;99.90;;;;;;5033748;28;20043;-82
2020/12/03 09:12:51;;;;;;;22.38;11.63;;;5.40;99.90;;;;;;5019745;28;20056;-82
2020/12/03 09:15:17;;;;;;;29.95;12.35;;;5.40;99.90;;;;;;5038861;28;20037;-82
2020/12/03 09:17:51;;;;;;;27.45;14.43;;;5.40;99.90;;;;;;5050728;28;20044;-83
2020/12/03 09:20:17;;;;;;;29.23;12.23;;;5.40;99.90;;;;;;5052325;28;20032;-83
2020/12/03 09:22:43;;;;;;;25.30;12.57;;;5.40;99.90;;;;;;5047416;28;20069;-81
2020/12/03 09:25:11;;;;;;;21.65;11.18;;;5.40;99.90;;;;;;5024778;28;20109;-83
2020/12/03 09:27:40;;;;;;;21.77;10.48;;;5.40;99.90;;;;;;5048197;28;20100;-82
2020/12/03 09:30:14;;;;;;;23.27;12.10;;;5.40;99.90;;;;;;5038821;28;20054;-86
2020/12/03 09:32:41;;;;;;;29.25;13.70;;;5.40;99.90;;;;;;5019793;28;20029;-83
2020/12/03 09:35:09;;;;;;;24.95;12.60;;;5.30;99.90;;;;;;5049952;28;20029;-81
2020/12/03 09:37:34;;;;;;;26.42;13.68;;;5.40;99.90;;;;;;5035245;28;20108;-83
2020/12/03 09:40:02;;;;;;;23.23;11.38;;;5.30;99.90;;;;;;5047276;28;20079;-82
2020/12/03 09:42:34;;;;;;;26.20;12.27;;;5.40;99.90;;;;;;5052405;28;20036;-82
2020/12/03 09:45:05;;;;;;;20.13;10.93;;;5.30;99.90;;;;;;5041597;28;20040;-83
2020/12/03 09:47:32;;;;;;;26.73;12.10;;;5.40;99.90;;;;;;5050874;28;20083;-83
2020/12/03 09:49:58;;;;;;;21.45;11.20;;;5.30;99.90;;;;;;5024280;28;20024;-82
2020/12/03 09:52:25;;;;;;;23.20;11.20;;;5.30;99.90;;;;;;5041750;28;20036;-82
2020/12/03 09:54:51;;;;;;;21.90;11.35;;;5.40;99.90;;;;;;5026689;28;20025;-82
2020/12/03 09:57:16;;;;;;;21.10;9.07;;;5.30;99.90;;;;;;5032599;28;20429;-83
2020/12/03 09:59:42;;;;;;;20.88;9.95;;;5.30;99.90;;;;;;5045581;28;20055;-82
2020/12/03 10:02:07;;;;;;;17.20;9.40;;;5.40;99.90;;;;;;5041559;28;20029;-82
2020/12/03 10:04:58;;;;;;;21.45;9.95;;;5.30;99.90;;;;;;5044266;28;20036;-83
2020/12/03 10:08:01;;;;;;;19.38;9.82;;;5.30;99.90;;;;;;5038693;28;20296;-83
2020/12/03 10:11:02;;;;;;;19.92;9.73;;;5.30;99.90;;;;;;5045734;28;20083;-83
2020/12/03 10:13:55;;;;;;;19.13;8.30;;;5.30;99.90;;;;;;5034010;28;20033;-83
2020/12/03 10:16:23;;;;;;;18.40;9.23;;;5.40;99.90;;;;;;5050093;28;20036;-82
2020/12/03 10:18:51;;;;;;;15.95;8.07;;;5.40;99.90;;;;;;5039305;28;20057;-83
2020/12/03 10:21:25;;;;;;;16.67;7.15;;;5.40;99.90;;;;;;5030241;28;20029;-82
2020/12/03 10:24:14;;;;;;;16.33;7.70;;;5.40;99.90;;;;;;5043712;28;20048;-82
2020/12/03 10:26:59;;;;;;;15.93;7.18;;;5.30;99.90;;;;;;5047145;28;20128;-84
2020/12/03 10:29:31;;;;;;;11.93;6.43;;;5.30;99.90;;;;;;5075051;28;20028;-82
2020/12/03 10:32:07;;;;;;;19.52;9.55;;;5.30;99.90;;;;;;5038358;28;20059;-83
2020/12/03 10:34:38;;;;;;;18.60;9.27;;;5.30;99.90;;;;;;5041094;28;20057;-84
2020/12/03 10:37:11;;;;;;;21.50;9.77;;;5.30;99.90;;;;;;5053734;28;20036;-83
2020/12/03 10:39:53;;;;;;;22.88;10.43;;;5.30;99.90;;;;;;5048542;28;20384;-84
2020/12/03 10:42:23;;;;;;;19.08;9.65;;;5.20;99.90;;;;;;5035531;28;20067;-83
2020/12/03 10:44:59;;;;;;;16.27;7.65;;;5.30;99.90;;;;;;5023637;28;20049;-82
2020/12/03 10:47:25;;;;;;;22.42;9.90;;;5.20;99.90;;;;;;5047360;28;20053;-83
2020/12/03 10:49:52;;;;;;;21.85;10.63;;;5.20;99.90;;;;;;5032883;28;20507;-83
2020/12/03 10:52:27;;;;;;;23.30;9.93;;;5.20;99.90;;;;;;5043167;28;20079;-84
2020/12/03 10:55:00;;;;;;;19.90;10.35;;;5.20;99.90;;;;;;5041835;28;20035;-83
2020/12/03 10:57:30;;;;;;;18.42;8.55;;;5.20;99.90;;;;;;5030492;28;20038;-82
2020/12/03 10:59:59;;;;;;;17.75;9.60;;;5.20;99.90;;;;;;5054126;28;20060;-83
2020/12/03 11:02:45;;;;;;;12.70;6.82;;;5.20;99.90;;;;;;5029098;28;20166;-83
2020/12/03 11:05:12;;;;;;;15.90;6.53;;;5.20;99.90;;;;;;5019192;28;20105;-83
2020/12/03 11:07:39;;;;;;;15.30;7.35;;;5.30;99.90;;;;;;5022108;28;20056;-82
2020/12/03 11:10:05;;;;;;;19.15;8.57;;;5.30;99.90;;;;;;5030163;28;20040;-83
2020/12/03 11:12:32;;;;;;;11.35;5.85;;;5.30;99.90;;;;;;5026996;28;20117;-82
2020/12/03 11:15:05;;;;;;;15.43;8.55;;;5.20;99.90;;;;;;5027172;28;20041;-82
2020/12/03 11:17:30;;;;;;;15.40;7.63;;;5.20;99.90;;;;;;5029336;28;20037;-82
2020/12/03 11:19:58;;;;;;;16.52;8.13;;;5.30;99.90;;;;;;5029619;28;20130;-82
2020/12/03 11:22:54;;;;;;;14.73;7.80;;;5.20;99.90;;;;;;5003275;28;20054;-83
2020/12/03 11:25:26;;;;;;;13.32;6.75;;;5.30;99.90;;;;;;5008295;28;20030;-84
2020/12/03 11:27:54;;;;;;;14.02;6.30;;;5.30;99.90;;;;;;5029125;28;20029;-83
2020/12/03 11:30:23;;;;;;;14.80;7.82;;;5.30;99.90;;;;;;5013317;28;20056;-82
2020/12/03 11:32:55;;;;;;;11.73;5.85;;;5.30;99.90;;;;;;5013259;28;20040;-83
2020/12/03 11:35:25;;;;;;;13.70;6.72;;;5.30;99.90;;;;;;5044599;28;20033;-83
2020/12/03 11:37:55;;;;;;;;;;;5.30;99.90;;;;;;5029281;28;20049;-83
2020/12/03 11:40:30;;;;;;;19.40;8.23;;;5.30;99.90;;;;;;5029307;28;19913;-83
2020/12/03 11:50:53;;;;;;;16.15;8.60;;;5.30;99.90;;;;;;5028892;28;20030;-82
2020/12/03 11:53:20;;;;;;;16.35;7.68;;;5.30;99.90;;;;;;5012719;28;20604;-83
2020/12/03 11:55:46;;;;;;;17.00;8.32;;;5.30;99.90;;;;;;5012155;28;20500;-82
2020/12/03 11:58:11;;;;;;;15.00;8.73;;;5.30;99.90;;;;;;5016373;28;20041;-82
2020/12/03 12:00:37;;;;;;;14.25;7.95;;;5.30;99.90;;;;;;5008064;28;20057;-83
2020/12/03 12:03:07;;;;;;;19.33;8.27;;;5.30;99.90;;;;;;5016149;28;20065;-85
2020/12/03 12:08:28;;;;;;;12.05;6.55;;;5.30;99.90;;;;;;5030350;28;20045;-84
2020/12/03 12:13:20;;;;;;;12.45;7.28;;;5.40;99.90;;;;;;5050494;28;20098;-82
2020/12/03 12:15:45;;;;;;;12.30;6.53;;;5.40;99.90;;;;;;5032102;28;20062;-83
2020/12/03 12:18:11;;;;;;;15.13;7.97;;;5.40;99.90;;;;;;5031741;28;20053;-83
2020/12/03 12:20:38;;;;;;;12.05;6.80;;;5.40;99.90;;;;;;5048853;28;20083;-84
2020/12/03 12:23:03;;;;;;;13.20;6.40;;;5.40;99.90;;;;;;5023561;28;20050;-83
2020/12/03 12:25:29;;;;;;;11.93;6.55;;;5.40;99.90;;;;;;5033508;28;20362;-84
2020/12/03 12:27:54;;;;;;;18.50;8.82;;;5.40;99.90;;;;;;5061152;28;20029;-83
2020/12/03 12:30:20;;;;;;;12.38;6.68;;;5.30;99.90;;;;;;5028984;28;20035;-82
2020/12/03 12:32:46;;;;;;;13.38;6.45;;;5.40;99.90;;;;;;5023734;28;20039;-83
2020/12/03 12:35:11;;;;;;;13.30;6.72;;;5.40;99.90;;;;;;5036320;28;20021;-84
2020/12/03 12:37:37;;;;;;;11.77;6.47;;;5.40;99.90;;;;;;5048572;28;20043;-83
2020/12/03 12:40:04;;;;;;;14.85;6.72;;;5.30;99.90;;;;;;5047131;28;20034;-84
2020/12/03 12:42:29;;;;;;;15.73;5.80;;;5.40;99.90;;;;;;5030261;28;20064;-83
2020/12/03 12:44:55;;;;;;;9.25;4.32;;;5.40;99.90;;;;;;5041202;28;20033;-83
2020/12/03 12:47:22;;;;;;;10.40;4.85;;;5.40;99.90;;;;;;5047392;28;20044;-82
2020/12/03 12:49:49;;;;;;;11.05;5.88;;;5.40;99.90;;;;;;5032099;28;20044;-84
2020/12/03 12:52:15;;;;;;;11.13;5.43;;;5.40;99.90;;;;;;5030070;28;20043;-84
2020/12/03 12:54:40;;;;;;;12.73;6.22;;;5.30;99.90;;;;;;5041431;28;20036;-81
2020/12/03 12:57:06;;;;;;;11.05;6.13;;;5.30;99.90;;;;;;5032882;28;20032;-84
2020/12/03 12:59:32;;;;;;;12.30;5.38;;;5.40;99.90;;;;;;5031863;28;20140;-85
2020/12/03 13:01:58;;;;;;;12.55;5.88;;;5.40;99.90;;;;;;5025123;28;20037;-83
2020/12/03 13:04:24;;;;;;;11.10;6.25;;;5.30;99.90;;;;;;5025784;28;20037;-84
2020/12/03 13:06:54;;;;;;;11.00;4.97;;;5.30;99.90;;;;;;5031151;28;20052;-83
2020/12/03 13:09:20;;;;;;;10.27;4.90;;;5.40;99.90;;;;;;5020437;28;20155;-83
2020/12/03 13:11:47;;;;;;;13.40;6.95;;;5.30;99.90;;;;;;5023844;28;20033;-83
2020/12/03 13:14:13;;;;;;;12.75;6.18;;;5.30;99.90;;;;;;5046462;28;20101;-82
2020/12/03 13:16:39;;;;;;;11.50;5.82;;;5.30;99.90;;;;;;5064662;28;20051;-83
2020/12/03 13:19:07;;;;;;;11.63;6.50;;;5.30;99.90;;;;;;5031614;28;20041;-82